Time;durP1;ratioP1;P1;durP2;ratioP2;P2;SDS_P1;SDS_P2;PMS_P1;PMS_P2;Temp;Humidity;BMP_temperature;BMP_pressure;BME280_temperature;BME280_humidity;BME280_pressure;Samples;Min_cycle;Max_cycle;Signal;HPM_P1;HPM_P2
2023/11/25 00:01:12;;;;;;;52.37;36.63;;;5.50;96.30;;;;;;5068589;28;20572;-63
2023/11/25 00:03:39;;;;;;;55.67;37.70;;;5.50;96.40;;;;;;5067593;28;20202;-63
2023/11/25 00:06:07;;;;;;;58.37;36.80;;;5.50;96.40;;;;;;5061065;28;20223;-63
2023/11/25 00:08:34;;;;;;;53.13;35.30;;;5.50;96.40;;;;;;5061166;28;20606;-63
2023/11/25 00:11:01;;;;;;;50.47;36.53;;;5.40;96.40;;;;;;5067442;28;20206;-63
2023/11/25 00:13:33;;;;;;;56.70;38.33;;;5.40;96.40;;;;;;5067593;28;20300;-63
2023/11/25 00:16:00;;;;;;;52.50;39.07;;;5.40;96.40;;;;;;5063737;28;20237;-63
2023/11/25 00:18:29;;;;;;;57.47;37.57;;;5.30;96.40;;;;;;5066236;28;20635;-63
2023/11/25 00:20:55;;;;;;;59.17;37.63;;;5.40;96.40;;;;;;5061864;28;20208;-63
2023/11/25 00:23:22;;;;;;;54.20;37.57;;;5.40;96.50;;;;;;5064071;28;20634;-63
2023/11/25 00:25:53;;;;;;;58.57;39.03;;;5.40;96.50;;;;;;5064939;28;20198;-63
2023/11/25 00:28:21;;;;;;;55.90;38.20;;;5.40;96.60;;;;;;5065110;28;20190;-63
2023/11/25 00:30:49;;;;;;;60.27;40.93;;;5.40;96.60;;;;;;5062580;28;20216;-63
2023/11/25 00:33:16;;;;;;;57.50;40.43;;;5.40;96.70;;;;;;5062034;28;20283;-63
2023/11/25 00:35:43;;;;;;;62.67;40.50;;;5.40;96.70;;;;;;5068523;28;20292;-63
2023/11/25 00:38:10;;;;;;;57.97;39.80;;;5.50;96.80;;;;;;5067406;28;20205;-63
2023/11/25 00:40:37;;;;;;;65.57;42.27;;;5.50;96.80;;;;;;5066835;28;20572;-64
2023/11/25 00:43:04;;;;;;;67.37;42.43;;;5.60;96.90;;;;;;5069607;28;20218;-63
2023/11/25 00:45:31;;;;;;;60.60;39.90;;;5.60;97.00;;;;;;5065219;28;20639;-63
2023/11/25 00:47:59;;;;;;;61.20;40.43;;;5.70;97.00;;;;;;5046062;28;20233;-63
2023/11/25 00:50:26;;;;;;;58.47;39.60;;;5.70;97.00;;;;;;5067173;28;20208;-63
2023/11/25 00:52:54;;;;;;;58.70;40.60;;;5.70;97.10;;;;;;5071638;28;20263;-63
2023/11/25 00:55:21;;;;;;;61.23;40.20;;;5.70;97.20;;;;;;5063846;28;20205;-63
2023/11/25 00:57:48;;;;;;;63.93;43.17;;;5.80;97.20;;;;;;5069650;28;20284;-63
2023/11/25 01:00:15;;;;;;;60.20;41.03;;;5.80;97.20;;;;;;5048304;28;20218;-63
2023/11/25 01:02:44;;;;;;;60.73;38.93;;;5.80;97.30;;;;;;5046910;28;20190;-63
2023/11/25 01:05:12;;;;;;;67.23;42.00;;;5.80;97.30;;;;;;5067096;28;20241;-63
2023/11/25 01:07:39;;;;;;;64.73;40.00;;;5.80;97.20;;;;;;5055482;28;20209;-63
2023/11/25 01:10:06;;;;;;;58.70;39.70;;;5.80;97.20;;;;;;5060705;28;20205;-63
2023/11/25 01:12:35;;;;;;;59.43;39.60;;;5.80;97.20;;;;;;5067435;28;20284;-63
2023/11/25 01:15:03;;;;;;;56.20;38.17;;;5.80;97.20;;;;;;5063292;28;20218;-63
2023/11/25 01:17:32;;;;;;;63.33;40.73;;;5.80;97.20;;;;;;5066761;28;20205;-63
2023/11/25 01:19:59;;;;;;;58.87;38.73;;;5.70;97.10;;;;;;5044719;28;20567;-63
2023/11/25 01:22:26;;;;;;;63.97;40.13;;;5.70;97.20;;;;;;5065135;28;20573;-63
2023/11/25 01:24:53;;;;;;;65.83;41.83;;;5.60;97.30;;;;;;5065163;28;20209;-63
2023/11/25 01:27:23;;;;;;;63.20;40.13;;;5.60;97.50;;;;;;5067202;28;20205;-63
2023/11/25 01:29:51;;;;;;;62.73;41.07;;;5.60;97.60;;;;;;5062351;28;20205;-63
2023/11/25 01:32:19;;;;;;;57.27;38.87;;;5.60;97.80;;;;;;5056791;28;20202;-63
2023/11/25 01:34:47;;;;;;;66.93;40.63;;;5.60;97.90;;;;;;5052599;28;20205;-63
2023/11/25 01:37:17;;;;;;;64.60;41.07;;;5.70;98.00;;;;;;5065267;28;20569;-63
2023/11/25 01:39:45;;;;;;;63.07;40.17;;;5.70;98.10;;;;;;5051310;28;20550;-63
2023/11/25 01:42:12;;;;;;;56.07;39.97;;;5.70;98.30;;;;;;5069453;28;20296;-63
2023/11/25 01:44:39;;;;;;;57.60;40.43;;;5.70;98.30;;;;;;5055293;28;20197;-63
2023/11/25 01:47:08;;;;;;;64.67;42.37;;;5.80;98.40;;;;;;5066559;28;20250;-63
2023/11/25 01:49:35;;;;;;;62.57;39.30;;;5.80;98.50;;;;;;5048837;28;20214;-63
2023/11/25 01:52:04;;;;;;;56.53;39.73;;;5.90;98.50;;;;;;5066286;28;20228;-63
2023/11/25 01:54:31;;;;;;;58.30;40.20;;;5.90;98.60;;;;;;5063145;28;20260;-63
2023/11/25 01:56:59;;;;;;;56.77;38.83;;;5.90;98.60;;;;;;5067357;28;20210;-63
2023/11/25 01:59:27;;;;;;;61.30;40.43;;;6.00;98.70;;;;;;5053854;28;20279;-63
2023/11/25 02:01:55;;;;;;;60.60;38.47;;;6.00;98.60;;;;;;5063748;28;20206;-64
2023/11/25 02:04:23;;;;;;;59.50;37.80;;;6.00;98.60;;;;;;5054644;28;20313;-63
2023/11/25 02:06:50;;;;;;;61.63;40.53;;;6.00;98.60;;;;;;5064847;28;20318;-63
2023/11/25 02:09:17;;;;;;;58.57;39.57;;;6.00;98.60;;;;;;5053467;28;20296;-63
2023/11/25 02:11:58;;;;;;;58.33;37.73;;;6.00;98.60;;;;;;5065277;28;20561;-64
2023/11/25 02:14:26;;;;;;;56.53;37.70;;;6.00;98.90;;;;;;5046571;28;20214;-63
2023/11/25 02:16:55;;;;;;;60.03;37.50;;;6.00;98.60;;;;;;5046684;28;20263;-63
2023/11/25 02:19:28;;;;;;;56.13;37.80;;;6.00;98.60;;;;;;5046686;28;20302;-64
2023/11/25 02:21:55;;;;;;;57.57;38.30;;;6.00;98.70;;;;;;5045041;28;20195;-63
2023/11/25 02:24:29;;;;;;;56.23;38.93;;;6.00;98.70;;;;;;5054301;28;20204;-64
2023/11/25 02:27:01;;;;;;;58.00;38.00;;;6.00;98.70;;;;;;5062908;28;20628;-63
2023/11/25 02:29:28;;;;;;;56.03;37.17;;;6.00;98.70;;;;;;5067725;28;20647;-63
2023/11/25 02:31:58;;;;;;;56.07;38.67;;;6.00;98.60;;;;;;5065017;28;20202;-63
2023/11/25 02:34:26;;;;;;;54.50;37.30;;;6.00;98.60;;;;;;5062862;28;20198;-63
2023/11/25 02:36:53;;;;;;;61.57;38.73;;;6.00;98.60;;;;;;5062120;28;20209;-64
2023/11/25 02:39:22;;;;;;;58.27;38.63;;;6.00;98.60;;;;;;5047391;28;20671;-63
2023/11/25 02:41:51;;;;;;;56.33;38.73;;;6.00;98.60;;;;;;5053170;28;20210;-63
2023/11/25 02:44:18;;;;;;;56.73;39.57;;;6.00;98.60;;;;;;5043564;28;20597;-63
2023/11/25 02:46:49;;;;;;;63.87;40.63;;;6.00;98.60;;;;;;5042322;28;20701;-63
2023/11/25 02:49:16;;;;;;;59.50;39.23;;;6.00;98.60;;;;;;5044846;28;20201;-63
2023/11/25 02:51:48;;;;;;;54.60;37.70;;;6.00;98.50;;;;;;5061394;28;20208;-63
2023/11/25 02:54:16;;;;;;;57.80;39.60;;;6.00;98.50;;;;;;5063883;28;20243;-63
2023/11/25 02:56:43;;;;;;;57.20;38.67;;;6.00;98.50;;;;;;5062551;28;20208;-63
2023/11/25 02:59:11;;;;;;;59.90;39.83;;;5.90;98.50;;;;;;5061740;28;20209;-63
2023/11/25 03:01:48;;;;;;;60.27;38.90;;;5.90;98.50;;;;;;5051693;28;20201;-63
2023/11/25 03:04:19;;;;;;;58.83;39.27;;;5.90;98.40;;;;;;5069774;28;20229;-63
2023/11/25 03:06:48;;;;;;;53.77;37.63;;;5.90;98.40;;;;;;5068465;28;20205;-63
2023/11/25 03:09:15;;;;;;;54.50;37.97;;;5.90;98.40;;;;;;5056377;28;20198;-63
2023/11/25 03:11:42;;;;;;;60.43;39.73;;;5.80;98.40;;;;;;5053390;28;20640;-63
2023/11/25 03:14:09;;;;;;;56.87;38.80;;;5.80;98.40;;;;;;5065825;28;20201;-63
2023/11/25 03:16:36;;;;;;;56.20;38.60;;;5.80;98.70;;;;;;5066739;28;20201;-63
2023/11/25 03:19:06;;;;;;;63.87;38.77;;;5.70;98.30;;;;;;5047919;28;20211;-63
2023/11/25 03:21:34;;;;;;;57.23;38.47;;;5.70;98.40;;;;;;5071200;28;20532;-63
2023/11/25 03:24:01;;;;;;;53.37;36.77;;;5.70;98.40;;;;;;5064744;28;20225;-63
2023/11/25 03:26:30;;;;;;;58.90;38.23;;;5.60;98.40;;;;;;5039356;28;20189;-63
2023/11/25 03:28:58;;;;;;;60.13;38.07;;;5.60;98.30;;;;;;5047943;28;20197;-63
2023/11/25 03:31:27;;;;;;;52.30;35.87;;;5.60;98.40;;;;;;5027544;28;20210;-64
2023/11/25 03:33:54;;;;;;;62.47;37.60;;;5.50;98.40;;;;;;5055894;28;20278;-64
2023/11/25 03:36:22;;;;;;;61.43;37.67;;;5.50;98.40;;;;;;5053753;28;20206;-63
2023/11/25 03:38:50;;;;;;;56.33;37.13;;;5.40;98.40;;;;;;5053996;28;20263;-64
2023/11/25 03:41:17;;;;;;;51.13;36.37;;;5.40;98.40;;;;;;5064967;28;20246;-63
2023/11/25 03:43:45;;;;;;;51.57;35.17;;;5.40;98.40;;;;;;5063627;28;20200;-63
2023/11/25 03:46:13;;;;;;;50.43;34.87;;;5.40;98.40;;;;;;5071202;28;20651;-63
2023/11/25 03:48:40;;;;;;;51.47;35.07;;;5.30;98.40;;;;;;5067815;28;20199;-63
2023/11/25 03:51:10;;;;;;;46.93;34.30;;;5.30;98.40;;;;;;5066485;28;20198;-63
2023/11/25 03:53:37;;;;;;;55.13;35.30;;;5.30;98.50;;;;;;5065324;28;20229;-63
2023/11/25 03:56:06;;;;;;;54.03;34.10;;;5.30;98.40;;;;;;5065786;28;20288;-63
2023/11/25 03:58:34;;;;;;;46.43;32.80;;;5.20;98.30;;;;;;5046619;28;20196;-63
2023/11/25 04:01:01;;;;;;;51.87;33.67;;;5.20;98.40;;;;;;5065134;28;20305;-63
2023/11/25 04:03:28;;;;;;;58.00;34.53;;;5.10;98.40;;;;;;5065982;28;20205;-63
2023/11/25 04:05:57;;;;;;;50.97;32.77;;;5.10;98.30;;;;;;5052478;28;20245;-63
2023/11/25 04:08:24;;;;;;;57.17;35.30;;;5.00;98.30;;;;;;5066920;28;20300;-63
2023/11/25 04:10:51;;;;;;;53.53;34.90;;;5.00;98.40;;;;;;5070613;28;20210;-63
2023/11/25 04:13:19;;;;;;;54.57;35.53;;;5.00;98.40;;;;;;5064531;28;20581;-63
2023/11/25 04:15:46;;;;;;;50.03;32.63;;;5.00;98.70;;;;;;5063706;28;20212;-63
2023/11/25 04:18:13;;;;;;;57.87;34.27;;;4.90;98.40;;;;;;5044712;28;20210;-63
2023/11/25 04:20:40;;;;;;;59.60;33.73;;;4.90;98.40;;;;;;5060986;28;20221;-63
2023/11/25 04:23:08;;;;;;;55.90;35.60;;;4.90;98.30;;;;;;5053645;28;20572;-64
2023/11/25 04:25:35;;;;;;;55.27;36.63;;;4.80;98.20;;;;;;5062517;28;20231;-63
2023/11/25 04:28:04;;;;;;;57.77;36.70;;;4.80;98.20;;;;;;5053711;28;20197;-63
2023/11/25 04:30:31;;;;;;;61.50;36.73;;;4.80;98.30;;;;;;5065994;28;20194;-63
2023/11/25 04:32:59;;;;;;;58.40;37.97;;;4.70;98.30;;;;;;5064062;28;20212;-63
2023/11/25 04:35:26;;;;;;;54.70;33.73;;;4.70;98.40;;;;;;5066481;28;20211;-63
2023/11/25 04:37:53;;;;;;;53.90;34.33;;;4.70;98.50;;;;;;5065375;28;20208;-63
2023/11/25 04:40:20;;;;;;;58.83;34.63;;;4.80;98.60;;;;;;5064603;28;20210;-63
2023/11/25 04:42:48;;;;;;;51.57;33.53;;;4.70;98.50;;;;;;5066415;28;20545;-63
2023/11/25 04:45:20;;;;;;;52.63;34.27;;;4.70;98.40;;;;;;5063288;28;20206;-63
2023/11/25 04:47:53;;;;;;;53.77;35.47;;;4.70;98.40;;;;;;5070206;28;20189;-63
2023/11/25 04:50:20;;;;;;;53.43;34.93;;;4.60;98.40;;;;;;5067306;28;20569;-63
2023/11/25 04:52:47;;;;;;;51.83;34.53;;;4.60;98.40;;;;;;5069257;28;20212;-63
2023/11/25 04:55:15;;;;;;;55.97;34.40;;;4.60;98.50;;;;;;5042001;28;20693;-63
2023/11/25 04:57:44;;;;;;;53.07;32.67;;;4.60;98.60;;;;;;5056351;28;20195;-63
2023/11/25 05:00:13;;;;;;;55.70;33.33;;;4.60;98.60;;;;;;5067431;28;20245;-63
2023/11/25 05:02:41;;;;;;;51.13;32.47;;;4.60;98.60;;;;;;5063401;28;20266;-63
2023/11/25 05:05:09;;;;;;;52.50;31.73;;;4.60;98.60;;;;;;5055759;28;20249;-63
2023/11/25 05:07:36;;;;;;;50.53;31.60;;;4.60;98.60;;;;;;5059471;28;20194;-63
2023/11/25 05:10:09;;;;;;;44.13;29.03;;;4.60;98.70;;;;;;5062875;28;20201;-63
2023/11/25 05:12:37;;;;;;;45.13;29.10;;;4.60;98.70;;;;;;5053903;28;20722;-63
2023/11/25 05:15:06;;;;;;;43.10;27.73;;;4.60;98.70;;;;;;5064417;28;20290;-63
2023/11/25 05:17:33;;;;;;;38.00;24.47;;;4.60;98.60;;;;;;5060493;28;20272;-63
2023/11/25 05:20:01;;;;;;;39.77;24.97;;;4.60;98.50;;;;;;5060222;28;20573;-63
2023/11/25 05:22:28;;;;;;;41.77;26.03;;;4.50;98.30;;;;;;5065265;28;20211;-63
2023/11/25 05:24:55;;;;;;;39.90;25.20;;;4.50;98.20;;;;;;5064862;28;20252;-63
2023/11/25 05:27:22;;;;;;;38.77;24.47;;;4.50;98.10;;;;;;5068223;28;20202;-63
2023/11/25 05:29:50;;;;;;;38.93;25.80;;;4.50;98.10;;;;;;5061658;28;20220;-63
2023/11/25 05:32:17;;;;;;;40.57;25.73;;;4.50;98.10;;;;;;5061178;28;20201;-63
2023/11/25 05:34:44;;;;;;;41.43;24.80;;;4.50;98.10;;;;;;5066947;28;20212;-63
2023/11/25 05:37:13;;;;;;;37.77;24.80;;;4.50;98.10;;;;;;5065353;28;20205;-63
2023/11/25 05:39:45;;;;;;;36.35;23.75;;;4.50;98.10;;;;;;5063466;28;20187;-63
2023/11/25 05:42:13;;;;;;;40.97;23.87;;;4.50;98.10;;;;;;5063774;28;20274;-63
2023/11/25 05:44:43;;;;;;;36.53;22.60;;;4.40;98.00;;;;;;5067262;28;20247;-63
2023/11/25 05:47:10;;;;;;;35.40;22.90;;;4.40;97.90;;;;;;5064204;28;20200;-63
2023/11/25 05:49:40;;;;;;;33.87;21.77;;;4.40;97.70;;;;;;5068601;28;20266;-63
2023/11/25 05:52:07;;;;;;;36.27;22.90;;;4.40;97.70;;;;;;5048593;28;20196;-63
2023/11/25 05:54:34;;;;;;;32.80;23.10;;;4.40;97.70;;;;;;5062499;28;20624;-63
2023/11/25 05:57:01;;;;;;;37.17;24.00;;;4.40;97.70;;;;;;5061937;28;20525;-63
2023/11/25 05:59:28;;;;;;;33.37;21.60;;;4.40;97.60;;;;;;5064249;28;20291;-63
2023/11/25 06:01:55;;;;;;;33.97;22.30;;;4.40;97.50;;;;;;5064267;28;20303;-63
2023/11/25 06:04:22;;;;;;;36.97;22.53;;;4.40;97.30;;;;;;5066634;28;20323;-63
2023/11/25 06:06:49;;;;;;;36.13;23.47;;;4.40;97.30;;;;;;5065263;28;20562;-63
2023/11/25 06:09:40;;;;;;;35.37;22.77;;;4.40;97.20;;;;;;5061651;28;20188;-63
2023/11/25 06:12:09;;;;;;;36.73;22.67;;;4.40;97.10;;;;;;5067212;28;20515;-63
2023/11/25 06:14:37;;;;;;;36.67;24.37;;;4.30;97.00;;;;;;5065196;28;20220;-63
2023/11/25 06:17:07;;;;;;;36.17;24.53;;;4.30;97.00;;;;;;5065756;28;20256;-62
2023/11/25 06:19:34;;;;;;;36.93;23.43;;;4.30;97.10;;;;;;5057742;28;20244;-62
2023/11/25 06:22:04;;;;;;;34.47;23.30;;;4.30;97.10;;;;;;5062793;28;20225;-62
2023/11/25 06:24:31;;;;;;;34.00;23.53;;;4.20;97.10;;;;;;5064396;28;20696;-63
2023/11/25 06:26:58;;;;;;;32.73;22.67;;;4.20;97.10;;;;;;5064096;28;20216;-63
2023/11/25 06:29:25;;;;;;;44.90;26.93;;;4.20;97.00;;;;;;5062980;28;20201;-63
2023/11/25 06:31:52;;;;;;;43.77;25.83;;;4.20;97.00;;;;;;5058623;28;20205;-63
2023/11/25 06:34:19;;;;;;;35.37;22.10;;;4.20;97.00;;;;;;5063947;28;20208;-63
2023/11/25 06:36:46;;;;;;;26.80;19.00;;;4.30;96.90;;;;;;5063558;28;20532;-63
2023/11/25 06:39:19;;;;;;;33.63;20.23;;;4.40;96.30;;;;;;5065344;28;20260;-63
2023/11/25 06:41:48;;;;;;;28.70;19.50;;;4.50;95.70;;;;;;5070452;28;20224;-63
2023/11/25 06:44:16;;;;;;;25.63;17.07;;;4.60;95.40;;;;;;5066281;28;20224;-64
2023/11/25 06:46:44;;;;;;;26.73;18.87;;;4.70;95.00;;;;;;5047859;28;20230;-63
2023/11/25 06:49:14;;;;;;;27.03;17.50;;;4.70;94.60;;;;;;5070444;28;20634;-63
2023/11/25 06:51:41;;;;;;;30.57;18.77;;;4.70;94.30;;;;;;5067502;28;20228;-63
2023/11/25 06:54:09;;;;;;;28.53;17.30;;;4.80;93.90;;;;;;5071841;28;20211;-63
2023/11/25 06:56:38;;;;;;;24.07;16.67;;;4.80;93.70;;;;;;5065199;28;20210;-63
2023/11/25 06:59:08;;;;;;;25.27;16.07;;;5.00;93.20;;;;;;5067719;28;20233;-62
2023/11/25 07:01:35;;;;;;;22.37;17.20;;;5.10;92.90;;;;;;5068140;28;20604;-63
2023/11/25 07:04:05;;;;;;;26.60;17.13;;;5.10;92.60;;;;;;5069873;28;20241;-63
2023/11/25 07:06:32;;;;;;;27.23;18.33;;;5.10;92.50;;;;;;5056630;28;20206;-63
2023/11/25 07:09:00;;;;;;;24.60;17.50;;;5.10;92.40;;;;;;5067160;28;20207;-63
2023/11/25 07:11:30;;;;;;;26.23;18.67;;;5.10;92.40;;;;;;5067739;28;20202;-63
2023/11/25 07:13:57;;;;;;;29.20;19.07;;;5.10;92.30;;;;;;5068619;28;20229;-63
2023/11/25 07:16:24;;;;;;;26.17;17.83;;;5.10;92.30;;;;;;5070765;28;20301;-63
2023/11/25 07:18:52;;;;;;;28.03;20.03;;;5.10;92.20;;;;;;5066330;28;20198;-63
2023/11/25 07:21:19;;;;;;;25.10;17.37;;;5.10;92.10;;;;;;5066311;28;20233;-63
2023/11/25 07:23:46;;;;;;;25.63;17.93;;;5.20;92.00;;;;;;5060328;28;20532;-63
2023/11/25 07:26:14;;;;;;;23.20;16.43;;;5.30;91.80;;;;;;5070175;28;20201;-63
2023/11/25 07:28:44;;;;;;;26.07;16.00;;;5.30;91.70;;;;;;5070713;28;20199;-63
2023/11/25 07:31:11;;;;;;;27.87;16.53;;;5.40;91.50;;;;;;5066918;28;20209;-63
2023/11/25 07:33:38;;;;;;;24.87;15.93;;;5.50;91.10;;;;;;5062086;28;20201;-63
2023/11/25 07:36:06;;;;;;;23.80;15.87;;;5.50;90.80;;;;;;5065897;28;20197;-63
2023/11/25 07:38:33;;;;;;;33.47;15.50;;;5.60;90.80;;;;;;5068696;28;20218;-63
2023/11/25 07:41:00;;;;;;;22.27;14.03;;;5.60;90.90;;;;;;5069882;28;20221;-63
2023/11/25 07:43:28;;;;;;;21.90;13.20;;;5.60;90.60;;;;;;5068401;28;20247;-63
2023/11/25 07:45:56;;;;;;;26.83;14.70;;;5.70;90.40;;;;;;5061946;28;20202;-63
2023/11/25 07:48:23;;;;;;;21.20;13.47;;;5.80;90.20;;;;;;5064951;28;20296;-63
2023/11/25 07:50:50;;;;;;;18.80;13.30;;;5.80;90.30;;;;;;5064496;28;20216;-62
2023/11/25 07:53:17;;;;;;;21.70;13.17;;;5.90;90.10;;;;;;5071305;28;20230;-62
2023/11/25 07:55:44;;;;;;;17.27;11.57;;;6.00;89.80;;;;;;5066529;28;20205;-63
2023/11/25 07:58:11;;;;;;;17.23;11.97;;;6.00;89.10;;;;;;5039552;28;20217;-63
2023/11/25 08:00:39;;;;;;;15.80;10.50;;;6.10;87.90;;;;;;5063368;28;20244;-63
2023/11/25 08:03:06;;;;;;;19.60;9.67;;;6.20;87.50;;;;;;5068447;28;20198;-63
2023/11/25 08:05:34;;;;;;;13.00;9.10;;;6.30;86.80;;;;;;5068688;28;20236;-63
2023/11/25 08:08:03;;;;;;;11.70;8.73;;;6.40;86.90;;;;;;5065651;28;20273;-63
2023/11/25 08:10:34;;;;;;;13.83;8.57;;;6.50;86.60;;;;;;5063817;28;20194;-64
2023/11/25 08:13:02;;;;;;;11.70;8.17;;;6.60;86.90;;;;;;5066365;28;20636;-63
2023/11/25 08:15:30;;;;;;;12.57;8.50;;;6.80;86.80;;;;;;5065109;28;20714;-64
2023/11/25 08:17:58;;;;;;;11.73;8.20;;;6.90;86.40;;;;;;5071595;28;20246;-64
2023/11/25 08:20:26;;;;;;;12.87;7.60;;;7.00;85.80;;;;;;5061748;28;20253;-63
2023/11/25 08:22:53;;;;;;;13.73;8.37;;;7.10;84.90;;;;;;5065141;28;20225;-63
2023/11/25 08:25:20;;;;;;;14.27;7.57;;;7.30;83.60;;;;;;5066192;28;20186;-63
2023/11/25 08:27:49;;;;;;;12.47;8.37;;;7.40;82.30;;;;;;5064976;28;20202;-64
2023/11/25 08:30:16;;;;;;;16.63;7.40;;;7.50;80.80;;;;;;5067519;28;20623;-63
2023/11/25 08:32:44;;;;;;;12.43;7.63;;;7.70;80.10;;;;;;5054026;28;20305;-64
2023/11/25 08:35:12;;;;;;;9.63;6.97;;;7.80;80.30;;;;;;5063809;28;20205;-64
2023/11/25 08:37:39;;;;;;;10.73;7.63;;;7.90;80.50;;;;;;5065945;28;20200;-64
2023/11/25 08:40:15;;;;;;;10.30;8.20;;;8.00;80.80;;;;;;5065334;28;20207;-63
2023/11/25 08:42:45;;;;;;;16.23;8.93;;;8.10;80.50;;;;;;5069546;28;20306;-64
2023/11/25 08:45:12;;;;;;;13.00;8.57;;;8.20;80.20;;;;;;5060291;28;20198;-63
2023/11/25 08:47:41;;;;;;;10.10;7.87;;;8.30;80.30;;;;;;5064104;28;20197;-64
2023/11/25 08:50:15;;;;;;;11.63;8.60;;;8.40;80.10;;;;;;5067754;28;20584;-64
2023/11/25 08:52:46;;;;;;;10.47;7.40;;;8.50;80.40;;;;;;5066640;28;20190;-64
2023/11/25 08:55:17;;;;;;;8.27;5.87;;;8.60;80.30;;;;;;5066350;28;20204;-64
2023/11/25 08:57:45;;;;;;;8.13;5.50;;;8.70;78.50;;;;;;5062554;28;20193;-63
2023/11/25 09:00:21;;;;;;;7.63;5.67;;;8.80;77.00;;;;;;5061854;28;20208;-64
2023/11/25 09:02:50;;;;;;;7.47;4.03;;;8.90;76.40;;;;;;5065504;28;20245;-64
2023/11/25 09:05:25;;;;;;;1.70;0.80;;;9.00;76.00;;;;;;5068561;28;20699;-64
2023/11/25 09:07:54;;;;;;;0.40;0.20;;;9.10;67.60;;;;;;5065944;28;20662;-63
2023/11/25 09:10:23;;;;;;;1.53;0.30;;;9.30;62.50;;;;;;5060185;28;20194;-64
2023/11/25 09:12:53;;;;;;;2.37;0.30;;;9.50;58.50;;;;;;5063968;28;20242;-63
2023/11/25 09:15:21;;;;;;;0.20;0.20;;;9.70;56.10;;;;;;5063419;28;20286;-63
2023/11/25 09:17:48;;;;;;;0.63;0.30;;;9.90;56.00;;;;;;5062713;28;20218;-63
2023/11/25 09:20:16;;;;;;;0.93;0.30;;;10.00;54.10;;;;;;5064579;28;20544;-63
2023/11/25 09:22:44;;;;;;;1.70;0.90;;;10.20;52.00;;;;;;5060584;28;20549;-63
2023/11/25 09:25:12;;;;;;;0.20;0.20;;;10.40;51.60;;;;;;5066200;28;20214;-64
2023/11/25 09:27:40;;;;;;;0.57;0.30;;;10.50;50.90;;;;;;5060851;28;20281;-64
2023/11/25 09:30:11;;;;;;;0.40;0.40;;;10.60;50.60;;;;;;5042598;28;20211;-63
2023/11/25 09:32:40;;;;;;;0.40;0.40;;;10.70;50.60;;;;;;5062623;28;20219;-64
2023/11/25 09:35:10;;;;;;;0.57;0.30;;;10.80;52.20;;;;;;5062266;28;20237;-64
2023/11/25 09:37:38;;;;;;;0.50;0.40;;;10.80;52.40;;;;;;5062441;28;20210;-63
2023/11/25 09:40:07;;;;;;;1.60;0.30;;;10.90;52.70;;;;;;5062270;28;20563;-64
2023/11/25 09:42:34;;;;;;;0.23;0.20;;;11.00;50.20;;;;;;5050414;28;20230;-64
2023/11/25 09:45:01;;;;;;;0.87;0.60;;;11.00;49.70;;;;;;5066008;28;20257;-63
2023/11/25 09:47:28;;;;;;;1.87;0.30;;;11.10;48.50;;;;;;5059141;28;20564;-64
2023/11/25 09:49:55;;;;;;;0.30;0.30;;;11.10;49.10;;;;;;5046984;28;20259;-63
2023/11/25 09:52:27;;;;;;;0.40;0.40;;;11.20;47.20;;;;;;5064436;28;20631;-63
2023/11/25 09:54:58;;;;;;;0.30;0.30;;;11.30;48.30;;;;;;5062573;28;20216;-63
2023/11/25 09:57:32;;;;;;;0.30;0.30;;;11.30;49.10;;;;;;5063517;28;20270;-64
2023/11/25 10:00:00;;;;;;;0.80;0.50;;;11.40;47.80;;;;;;5040267;28;20255;-64
2023/11/25 10:02:35;;;;;;;1.30;0.30;;;11.40;50.10;;;;;;5065144;28;20218;-64
2023/11/25 10:05:04;;;;;;;1.40;0.30;;;11.50;50.00;;;;;;5063766;28;20788;-64
2023/11/25 10:07:31;;;;;;;0.60;0.23;;;11.60;48.80;;;;;;5063012;28;20198;-64
2023/11/25 10:09:59;;;;;;;0.67;0.40;;;11.60;46.80;;;;;;5061096;28;20227;-63
2023/11/25 10:12:26;;;;;;;1.70;0.50;;;11.60;47.90;;;;;;5062474;28;20199;-63
2023/11/25 10:14:53;;;;;;;0.33;0.30;;;11.70;46.50;;;;;;5064045;28;20298;-63
2023/11/25 10:17:23;;;;;;;0.97;0.40;;;11.70;46.40;;;;;;5048635;28;20202;-63
2023/11/25 10:20:18;;;;;;;0.27;0.27;;;11.70;47.70;;;;;;5067785;28;20232;-63
2023/11/25 10:22:49;;;;;;;0.30;0.30;;;11.80;46.70;;;;;;5066317;28;20216;-64
2023/11/25 10:25:19;;;;;;;0.63;0.40;;;11.80;49.10;;;;;;5066979;28;20224;-63
2023/11/25 10:27:51;;;;;;;0.30;0.30;;;11.80;49.00;;;;;;5064022;28;20292;-63
2023/11/25 10:30:20;;;;;;;3.20;0.50;;;11.90;47.40;;;;;;5064242;28;20199;-64
2023/11/25 10:32:49;;;;;;;1.00;0.30;;;12.00;49.00;;;;;;5059681;28;20216;-64
2023/11/25 10:35:17;;;;;;;0.47;0.30;;;12.00;48.00;;;;;;5057315;28;20239;-64
2023/11/25 10:37:45;;;;;;;0.30;0.23;;;12.10;46.80;;;;;;5061641;28;20240;-64
2023/11/25 10:40:16;;;;;;;0.53;0.40;;;12.10;46.10;;;;;;5065783;28;20530;-63
2023/11/25 10:42:45;;;;;;;0.40;0.40;;;12.20;46.00;;;;;;5065238;28;20218;-63
2023/11/25 10:45:16;;;;;;;1.77;0.47;;;12.20;45.60;;;;;;5053946;28;20195;-63
2023/11/25 10:47:43;;;;;;;1.97;0.50;;;12.20;45.10;;;;;;5058088;28;20529;-63
2023/11/25 10:50:13;;;;;;;0.40;0.40;;;12.20;43.60;;;;;;5046596;28;20665;-64
2023/11/25 10:52:43;;;;;;;0.40;0.40;;;12.30;44.40;;;;;;5064129;28;20212;-63
2023/11/25 10:55:10;;;;;;;2.73;0.37;;;12.30;42.40;;;;;;5061904;28;20198;-64
2023/11/25 10:57:38;;;;;;;0.30;0.30;;;12.30;41.30;;;;;;5060306;28;20209;-63
2023/11/25 11:00:14;;;;;;;0.83;0.27;;;12.40;40.10;;;;;;5060184;28;20224;-63
2023/11/25 11:02:54;;;;;;;0.20;0.20;;;12.40;39.40;;;;;;5063755;28;20209;-64
2023/11/25 11:05:46;;;;;;;1.23;0.30;;;12.40;37.50;;;;;;5063413;28;20229;-63
2023/11/25 11:08:21;;;;;;;0.97;0.47;;;12.40;38.80;;;;;;5070139;28;20274;-63
2023/11/25 11:11:00;;;;;;;0.20;0.20;;;12.40;38.50;;;;;;5066462;28;20228;-63
2023/11/25 11:13:38;;;;;;;0.70;0.50;;;12.40;38.30;;;;;;5061439;28;20206;-63
2023/11/25 11:16:24;;;;;;;3.50;0.40;;;12.50;38.30;;;;;;5062279;28;20197;-63
2023/11/25 11:18:55;;;;;;;0.43;0.40;;;12.50;39.30;;;;;;5057852;28;20557;-63
2023/11/25 11:21:28;;;;;;;0.70;0.40;;;12.50;39.30;;;;;;5057737;28;20202;-63
2023/11/25 11:23:55;;;;;;;1.13;0.87;;;12.60;36.80;;;;;;5059798;28;20564;-63
2023/11/25 11:26:35;;;;;;;0.23;0.23;;;12.70;37.90;;;;;;5065890;28;20194;-64
2023/11/25 11:29:22;;;;;;;1.03;0.30;;;12.70;38.40;;;;;;5066968;28;20204;-63
2023/11/25 11:31:59;;;;;;;2.30;0.40;;;12.80;39.90;;;;;;5070648;28;20197;-63
2023/11/25 11:34:28;;;;;;;0.70;0.30;;;12.80;38.30;;;;;;5064314;28;20521;-63
2023/11/25 11:36:55;;;;;;;1.07;0.40;;;12.80;36.90;;;;;;5063221;28;20622;-63
2023/11/25 11:39:33;;;;;;;0.73;0.37;;;12.90;37.90;;;;;;5068845;28;20219;-63
2023/11/25 11:42:25;;;;;;;0.83;0.57;;;12.90;36.90;;;;;;5066622;28;20246;-63
2023/11/25 11:44:56;;;;;;;2.67;0.53;;;12.90;36.20;;;;;;5067387;28;20204;-63
2023/11/25 11:47:24;;;;;;;0.53;0.40;;;12.90;37.10;;;;;;5065529;28;20326;-63
2023/11/25 11:49:52;;;;;;;3.00;0.50;;;12.90;36.60;;;;;;5065707;28;20202;-63
2023/11/25 11:52:19;;;;;;;3.00;0.40;;;12.90;36.50;;;;;;5070353;28;20199;-64
2023/11/25 11:54:46;;;;;;;0.37;0.37;;;12.90;36.00;;;;;;5063478;28;20233;-63
2023/11/25 11:57:13;;;;;;;0.70;0.30;;;12.90;36.20;;;;;;5061188;28;20213;-65
2023/11/25 12:00:00;;;;;;;0.50;0.40;;;12.90;35.80;;;;;;5068527;28;20228;-63
2023/11/25 12:02:31;;;;;;;0.30;0.30;;;12.90;35.50;;;;;;5064355;28;20680;-63
2023/11/25 12:05:00;;;;;;;0.27;0.27;;;12.90;35.80;;;;;;5048824;28;20245;-63
2023/11/25 12:07:27;;;;;;;0.73;0.50;;;12.90;36.50;;;;;;5064722;28;20632;-63
2023/11/25 12:09:55;;;;;;;0.63;0.40;;;12.90;35.20;;;;;;5068468;28;20625;-63
2023/11/25 12:12:23;;;;;;;0.63;0.40;;;12.90;35.10;;;;;;5065124;28;20221;-64
2023/11/25 12:14:50;;;;;;;0.40;0.40;;;12.90;33.60;;;;;;5063825;28;20667;-63
2023/11/25 12:17:21;;;;;;;0.30;0.20;;;12.80;35.30;;;;;;5062713;28;20241;-63
2023/11/25 12:19:52;;;;;;;0.30;0.30;;;12.80;36.60;;;;;;5060077;28;20687;-63
2023/11/25 12:22:19;;;;;;;0.30;0.30;;;12.80;34.90;;;;;;5045537;28;20344;-63
2023/11/25 12:24:46;;;;;;;1.50;0.33;;;12.80;32.90;;;;;;5066665;28;20203;-63
2023/11/25 12:27:17;;;;;;;0.30;0.30;;;12.80;34.50;;;;;;5065042;28;20249;-63
2023/11/25 12:29:44;;;;;;;3.30;0.33;;;12.80;35.20;;;;;;5067527;28;20218;-63
2023/11/25 12:32:11;;;;;;;1.03;0.30;;;12.80;36.30;;;;;;5060406;28;20316;-63
2023/11/25 12:34:39;;;;;;;0.27;0.20;;;12.80;35.70;;;;;;5041920;28;20532;-63
2023/11/25 12:37:06;;;;;;;1.60;0.30;;;12.80;34.90;;;;;;5063995;28;20205;-63
2023/11/25 12:39:37;;;;;;;1.30;0.40;;;12.80;34.60;;;;;;5064708;28;20202;-63
2023/11/25 12:42:05;;;;;;;0.20;0.20;;;12.80;35.40;;;;;;5054763;28;20234;-63
2023/11/25 12:44:48;;;;;;;0.40;0.40;;;12.80;35.20;;;;;;5064346;28;20725;-63
2023/11/25 12:47:16;;;;;;;1.13;0.30;;;12.80;35.10;;;;;;5050137;28;20194;-63
2023/11/25 12:49:44;;;;;;;0.67;0.30;;;12.80;35.00;;;;;;5062755;28;20189;-63